TimeAST,TemperatureF,Dew PointF,Humidity,Sea Level PressureIn,VisibilityMPH,Wind Direction,Wind SpeedMPH,Gust SpeedMPH,PrecipitationIn,Events,Conditions,WindDirDegrees,DateUTC
12:00 AM,80.6,75.2,84,29.89,-9999.0,East,15.0,-,N/A,,Unknown,80,2013-04-18 04:00:00
1:00 AM,80.6,75.2,84,29.89,-9999.0,East,13.8,-,N/A,,Unknown,80,2013-04-18 05:00:00
2:00 AM,-9999,-9999,N/A,29.86,-9999.0,East,12.7,-,N/A,,Unknown,90,2013-04-18 06:00:00
3:00 AM,78.8,75.2,89,29.86,-9999.0,East,13.8,-,N/A,,Unknown,90,2013-04-18 07:00:00
4:00 AM,78.8,75.2,89,29.86,-9999.0,East,12.7,-,N/A,,Unknown,80,2013-04-18 08:00:00
5:00 AM,80,76,82,,,East,13.8,,,,Clear,80,2013-04-18 09:00:00
5:00 AM,80.6,75.2,84,29.86,-9999.0,East,13.8,-,N/A,,Unknown,80,2013-04-18 09:00:00
6:00 AM,78.8,75.2,89,29.89,-9999.0,East,12.7,-,N/A,,Unknown,90,2013-04-18 10:00:00
8:00 AM,82,76,78,,,East,20.7,,,,Clear,90,2013-04-18 12:00:00
8:00 AM,82.4,77.0,84,29.92,-9999.0,East,20.7,-,N/A,,Unknown,90,2013-04-18 12:00:00
9:00 AM,84.2,77.0,79,29.92,6.2,East,20.7,-,N/A,,Scattered Clouds,90,2013-04-18 13:00:00
10:00 AM,84.2,77.0,79,29.92,6.2,East,21.9,-,N/A,,Scattered Clouds,90,2013-04-18 14:00:00
11:00 AM,85,76,68,,6,East,21.9,,,,Clear,90,2013-04-18 15:00:00
11:00 AM,86.0,77.0,74,29.92,6.2,East,21.9,34.5,N/A,,Scattered Clouds,90,2013-04-18 15:00:00
12:00 PM,86.0,75.2,70,29.92,6.2,East,21.9,-,N/A,,Scattered Clouds,90,2013-04-18 16:00:00
1:00 PM,87.8,73.4,62,29.89,6.2,East,20.7,-,N/A,,Scattered Clouds,90,2013-04-18 17:00:00
2:00 PM,85,73,60,,6,East,20.7,,,,Clear,80,2013-04-18 18:00:00
2:00 PM,84.2,73.4,70,29.86,-9999.0,East,20.7,-,N/A,,Unknown,80,2013-04-18 18:00:00
3:00 PM,86.0,73.4,66,29.86,6.2,East,21.9,-,N/A,,Partly Cloudy,80,2013-04-18 19:00:00
4:00 PM,86.0,73.4,66,29.83,6.2,East,23.0,-,N/A,,Partly Cloudy,90,2013-04-18 20:00:00
5:00 PM,85,74,63,29.85,16,East,20.7,,,,Scattered Clouds,80,2013-04-18 21:00:00
5:00 PM,84.2,75.2,74,29.83,6.2,East,20.7,-,N/A,,Partly Cloudy,80,2013-04-18 21:00:00
6:00 PM,82.4,73.4,74,29.86,6.2,East,17.3,-,N/A,,Partly Cloudy,80,2013-04-18 22:00:00
7:00 PM,82.4,73.4,74,29.86,-9999.0,East,16.1,-,N/A,,Unknown,90,2013-04-18 23:00:00
8:00 PM,81,74,73,,6,East,16.1,,,,Clear,80,2013-04-19 00:00:00
8:00 PM,80.6,73.4,79,29.89,6.2,East,16.1,-,N/A,,Partly Cloudy,80,2013-04-19 00:00:00
9:00 PM,80.6,73.4,79,29.92,-9999.0,East,15.0,-,N/A,,Unknown,80,2013-04-19 01:00:00
10:00 PM,80.6,73.4,79,29.92,-9999.0,East,15.0,-,N/A,,Unknown,80,2013-04-19 02:00:00
11:00 PM,81,73,72,,,East,15.0,,,,Clear,80,2013-04-19 03:00:00
11:00 PM,80.6,73.4,79,29.92,-9999.0,East,15.0,-,N/A,,Partly Cloudy,80,2013-04-19 03:00:00